sensor_id;sensor_type;location;lat;lon;timestamp;temperature;humidity
57444;DHT22;43289;52.962;6.196;2022-07-23T00:00:46;14.20;99.90
57444;DHT22;43289;52.962;6.196;2022-07-23T00:03:13;14.10;99.90
57444;DHT22;43289;52.962;6.196;2022-07-23T00:05:38;14.10;99.90
57444;DHT22;43289;52.962;6.196;2022-07-23T00:08:05;14.00;99.90
57444;DHT22;43289;52.962;6.196;2022-07-23T00:10:31;14.00;99.90
57444;DHT22;43289;52.962;6.196;2022-07-23T00:12:57;14.00;99.90
57444;DHT22;43289;52.962;6.196;2022-07-23T00:15:22;13.90;99.90
57444;DHT22;43289;52.962;6.196;2022-07-23T00:17:48;13.90;99.90
57444;DHT22;43289;52.962;6.196;2022-07-23T00:20:14;13.80;99.90
57444;DHT22;43289;52.962;6.196;2022-07-23T00:22:51;13.80;99.90
57444;DHT22;43289;52.962;6.196;2022-07-23T00:25:18;13.80;99.90
57444;DHT22;43289;52.962;6.196;2022-07-23T00:30:11;13.70;99.90
57444;DHT22;43289;52.962;6.196;2022-07-23T00:32:50;13.70;99.90
57444;DHT22;43289;52.962;6.196;2022-07-23T00:35:17;13.80;99.90
57444;DHT22;43289;52.962;6.196;2022-07-23T00:37:44;13.70;99.90
57444;DHT22;43289;52.962;6.196;2022-07-23T00:42:36;13.70;99.90
57444;DHT22;43289;52.962;6.196;2022-07-23T01:07:27;13.80;99.90
57444;DHT22;43289;52.962;6.196;2022-07-23T01:24:56;13.50;99.90
57444;DHT22;43289;52.962;6.196;2022-07-23T01:30:44;13.40;99.90
57444;DHT22;43289;52.962;6.196;2022-07-23T01:33:10;13.30;99.90
57444;DHT22;43289;52.962;6.196;2022-07-23T01:35:36;13.40;99.90
57444;DHT22;43289;52.962;6.196;2022-07-23T01:38:08;13.40;99.90
57444;DHT22;43289;52.962;6.196;2022-07-23T01:40:33;13.40;99.90
57444;DHT22;43289;52.962;6.196;2022-07-23T01:42:59;13.40;99.90
57444;DHT22;43289;52.962;6.196;2022-07-23T01:45:24;13.20;99.90
57444;DHT22;43289;52.962;6.196;2022-07-23T01:47:50;13.10;99.90
57444;DHT22;43289;52.962;6.196;2022-07-23T01:50:16;13.10;99.90
57444;DHT22;43289;52.962;6.196;2022-07-23T01:52:42;13.10;99.90
57444;DHT22;43289;52.962;6.196;2022-07-23T01:55:08;13.00;99.90
57444;DHT22;43289;52.962;6.196;2022-07-23T01:57:34;13.00;99.90
57444;DHT22;43289;52.962;6.196;2022-07-23T01:59:59;13.00;99.90
57444;DHT22;43289;52.962;6.196;2022-07-23T02:02:25;12.90;99.90
57444;DHT22;43289;52.962;6.196;2022-07-23T02:04:51;12.90;99.90
57444;DHT22;43289;52.962;6.196;2022-07-23T02:07:16;12.80;99.90
57444;DHT22;43289;52.962;6.196;2022-07-23T02:09:42;12.70;99.90
57444;DHT22;43289;52.962;6.196;2022-07-23T02:12:07;12.70;99.90
57444;DHT22;43289;52.962;6.196;2022-07-23T02:14:33;12.70;99.90
57444;DHT22;43289;52.962;6.196;2022-07-23T02:16:59;12.70;99.90
57444;DHT22;43289;52.962;6.196;2022-07-23T02:19:24;12.60;99.90
57444;DHT22;43289;52.962;6.196;2022-07-23T02:21:50;12.60;99.90
57444;DHT22;43289;52.962;6.196;2022-07-23T02:24:16;12.50;99.90
57444;DHT22;43289;52.962;6.196;2022-07-23T02:26:43;12.50;99.90
57444;DHT22;43289;52.962;6.196;2022-07-23T02:29:08;12.40;99.90
57444;DHT22;43289;52.962;6.196;2022-07-23T02:34:56;12.30;99.90
57444;DHT22;43289;52.962;6.196;2022-07-23T02:37:21;12.20;99.90
57444;DHT22;43289;52.962;6.196;2022-07-23T02:39:47;12.20;99.90
57444;DHT22;43289;52.962;6.196;2022-07-23T02:42:14;12.20;99.90
57444;DHT22;43289;52.962;6.196;2022-07-23T02:44:41;12.10;99.90
57444;DHT22;43289;52.962;6.196;2022-07-23T02:47:06;12.10;99.90
57444;DHT22;43289;52.962;6.196;2022-07-23T02:49:32;12.20;99.90
57444;DHT22;43289;52.962;6.196;2022-07-23T02:51:58;12.20;99.90
57444;DHT22;43289;52.962;6.196;2022-07-23T02:54:23;12.20;99.90
57444;DHT22;43289;52.962;6.196;2022-07-23T02:56:50;12.20;99.90
57444;DHT22;43289;52.962;6.196;2022-07-23T02:59:17;12.20;99.90
57444;DHT22;43289;52.962;6.196;2022-07-23T03:01:43;12.20;99.90
57444;DHT22;43289;52.962;6.196;2022-07-23T03:04:09;12.30;99.90
57444;DHT22;43289;52.962;6.196;2022-07-23T03:06:35;12.30;99.90
57444;DHT22;43289;52.962;6.196;2022-07-23T03:09:00;12.30;99.90
57444;DHT22;43289;52.962;6.196;2022-07-23T03:11:26;12.30;99.90
57444;DHT22;43289;52.962;6.196;2022-07-23T03:13:51;12.30;99.90
57444;DHT22;43289;52.962;6.196;2022-07-23T03:16:17;12.30;99.90
57444;DHT22;43289;52.962;6.196;2022-07-23T03:22:04;12.30;99.90
57444;DHT22;43289;52.962;6.196;2022-07-23T03:24:30;12.30;99.90
57444;DHT22;43289;52.962;6.196;2022-07-23T03:27:14;12.30;99.90
57444;DHT22;43289;52.962;6.196;2022-07-23T03:32:47;12.10;99.90
57444;DHT22;43289;52.962;6.196;2022-07-23T03:35:12;12.10;99.90
57444;DHT22;43289;52.962;6.196;2022-07-23T03:37:38;12.00;99.90
57444;DHT22;43289;52.962;6.196;2022-07-23T03:40:04;12.00;99.90
57444;DHT22;43289;52.962;6.196;2022-07-23T03:42:30;12.00;99.90
57444;DHT22;43289;52.962;6.196;2022-07-23T03:44:55;11.90;99.90
57444;DHT22;43289;52.962;6.196;2022-07-23T03:47:21;11.90;99.90
57444;DHT22;43289;52.962;6.196;2022-07-23T03:49:49;11.90;99.90
57444;DHT22;43289;52.962;6.196;2022-07-23T03:52:15;12.00;99.90
57444;DHT22;43289;52.962;6.196;2022-07-23T03:54:41;12.00;99.90
57444;DHT22;43289;52.962;6.196;2022-07-23T03:57:06;12.00;99.90
57444;DHT22;43289;52.962;6.196;2022-07-23T03:59:32;12.00;99.90
57444;DHT22;43289;52.962;6.196;2022-07-23T04:01:58;12.00;99.90
57444;DHT22;43289;52.962;6.196;2022-07-23T04:04:40;12.00;99.90
57444;DHT22;43289;52.962;6.196;2022-07-23T04:07:06;12.00;99.90
57444;DHT22;43289;52.962;6.196;2022-07-23T04:09:33;12.00;99.90
57444;DHT22;43289;52.962;6.196;2022-07-23T04:12:26;12.10;99.90
57444;DHT22;43289;52.962;6.196;2022-07-23T04:14:52;12.10;99.90
57444;DHT22;43289;52.962;6.196;2022-07-23T04:17:17;12.10;99.90
57444;DHT22;43289;52.962;6.196;2022-07-23T04:19:52;12.20;99.90
57444;DHT22;43289;52.962;6.196;2022-07-23T04:22:18;12.40;99.90
57444;DHT22;43289;52.962;6.196;2022-07-23T04:24:43;12.30;99.90
57444;DHT22;43289;52.962;6.196;2022-07-23T04:27:35;12.40;99.90
57444;DHT22;43289;52.962;6.196;2022-07-23T04:30:01;12.50;99.90
57444;DHT22;43289;52.962;6.196;2022-07-23T04:32:26;12.50;99.90
57444;DHT22;43289;52.962;6.196;2022-07-23T04:34:52;12.60;99.90
57444;DHT22;43289;52.962;6.196;2022-07-23T04:37:17;12.80;99.90
57444;DHT22;43289;52.962;6.196;2022-07-23T04:39:43;12.90;99.90
57444;DHT22;43289;52.962;6.196;2022-07-23T04:42:10;12.90;99.90
57444;DHT22;43289;52.962;6.196;2022-07-23T04:44:35;13.00;99.90
57444;DHT22;43289;52.962;6.196;2022-07-23T04:47:01;13.10;99.90
57444;DHT22;43289;52.962;6.196;2022-07-23T04:49:26;13.10;99.90
57444;DHT22;43289;52.962;6.196;2022-07-23T04:51:52;13.10;99.90
57444;DHT22;43289;52.962;6.196;2022-07-23T04:54:17;13.20;99.90
57444;DHT22;43289;52.962;6.196;2022-07-23T04:56:43;13.20;99.90
57444;DHT22;43289;52.962;6.196;2022-07-23T04:59:09;13.30;99.90
57444;DHT22;43289;52.962;6.196;2022-07-23T05:01:34;13.40;99.90
57444;DHT22;43289;52.962;6.196;2022-07-23T05:04:00;13.40;99.90
57444;DHT22;43289;52.962;6.196;2022-07-23T05:06:25;13.50;99.90
57444;DHT22;43289;52.962;6.196;2022-07-23T05:12:16;13.60;99.90
57444;DHT22;43289;52.962;6.196;2022-07-23T05:14:42;13.70;99.90
57444;DHT22;43289;52.962;6.196;2022-07-23T05:17:40;13.70;99.90
57444;DHT22;43289;52.962;6.196;2022-07-23T05:20:06;13.90;99.90
57444;DHT22;43289;52.962;6.196;2022-07-23T05:22:38;13.90;99.90
57444;DHT22;43289;52.962;6.196;2022-07-23T05:25:04;14.00;99.90
57444;DHT22;43289;52.962;6.196;2022-07-23T05:27:30;14.10;99.90
57444;DHT22;43289;52.962;6.196;2022-07-23T05:29:56;14.20;99.90
57444;DHT22;43289;52.962;6.196;2022-07-23T05:34:47;14.30;99.90
57444;DHT22;43289;52.962;6.196;2022-07-23T05:45:40;14.40;99.90
57444;DHT22;43289;52.962;6.196;2022-07-23T05:48:05;14.80;99.90
57444;DHT22;43289;52.962;6.196;2022-07-23T05:52:57;14.90;99.90
57444;DHT22;43289;52.962;6.196;2022-07-23T05:57:49;15.00;99.90
57444;DHT22;43289;52.962;6.196;2022-07-23T06:02:41;15.20;99.90
57444;DHT22;43289;52.962;6.196;2022-07-23T06:05:07;15.40;99.90
57444;DHT22;43289;52.962;6.196;2022-07-23T06:12:25;15.50;99.90
57444;DHT22;43289;52.962;6.196;2022-07-23T06:14:51;15.80;99.90
57444;DHT22;43289;52.962;6.196;2022-07-23T06:20:12;15.90;99.90
57444;DHT22;43289;52.962;6.196;2022-07-23T06:22:38;16.10;99.90
57444;DHT22;43289;52.962;6.196;2022-07-23T06:25:04;16.10;99.90
57444;DHT22;43289;52.962;6.196;2022-07-23T06:27:30;16.20;99.90
57444;DHT22;43289;52.962;6.196;2022-07-23T06:29:56;16.30;99.90
57444;DHT22;43289;52.962;6.196;2022-07-23T06:32:21;16.40;99.90
57444;DHT22;43289;52.962;6.196;2022-07-23T06:34:47;16.40;99.90
57444;DHT22;43289;52.962;6.196;2022-07-23T06:37:12;16.50;99.90
57444;DHT22;43289;52.962;6.196;2022-07-23T06:39:38;16.60;99.90
57444;DHT22;43289;52.962;6.196;2022-07-23T06:42:40;16.60;99.90
57444;DHT22;43289;52.962;6.196;2022-07-23T06:45:07;16.70;99.90
57444;DHT22;43289;52.962;6.196;2022-07-23T06:47:33;16.90;99.90
57444;DHT22;43289;52.962;6.196;2022-07-23T06:49:59;17.10;99.90
57444;DHT22;43289;52.962;6.196;2022-07-23T06:52:24;17.10;99.90
57444;DHT22;43289;52.962;6.196;2022-07-23T06:54:51;17.20;99.90
57444;DHT22;43289;52.962;6.196;2022-07-23T06:57:18;17.20;99.90
57444;DHT22;43289;52.962;6.196;2022-07-23T06:59:44;17.30;99.90
57444;DHT22;43289;52.962;6.196;2022-07-23T07:02:10;17.40;99.90
57444;DHT22;43289;52.962;6.196;2022-07-23T07:04:35;17.40;99.90
57444;DHT22;43289;52.962;6.196;2022-07-23T07:07:01;17.50;99.90
57444;DHT22;43289;52.962;6.196;2022-07-23T07:09:27;17.50;99.90
57444;DHT22;43289;52.962;6.196;2022-07-23T07:11:55;17.50;99.90
57444;DHT22;43289;52.962;6.196;2022-07-23T07:14:22;17.60;99.90
57444;DHT22;43289;52.962;6.196;2022-07-23T07:16:50;17.70;99.90
57444;DHT22;43289;52.962;6.196;2022-07-23T07:19:44;17.70;99.90
57444;DHT22;43289;52.962;6.196;2022-07-23T07:22:10;17.80;99.90
57444;DHT22;43289;52.962;6.196;2022-07-23T07:24:35;17.80;99.90
57444;DHT22;43289;52.962;6.196;2022-07-23T07:27:14;18.00;99.90
57444;DHT22;43289;52.962;6.196;2022-07-23T07:29:40;18.00;99.90
57444;DHT22;43289;52.962;6.196;2022-07-23T07:32:06;18.10;99.90
57444;DHT22;43289;52.962;6.196;2022-07-23T07:34:31;18.10;99.90
57444;DHT22;43289;52.962;6.196;2022-07-23T07:36:57;18.20;99.90
57444;DHT22;43289;52.962;6.196;2022-07-23T07:39:22;18.30;99.90
57444;DHT22;43289;52.962;6.196;2022-07-23T07:41:48;18.40;99.90
57444;DHT22;43289;52.962;6.196;2022-07-23T07:44:13;18.50;99.90
57444;DHT22;43289;52.962;6.196;2022-07-23T07:46:39;18.50;99.90
57444;DHT22;43289;52.962;6.196;2022-07-23T07:49:05;18.40;99.90
57444;DHT22;43289;52.962;6.196;2022-07-23T07:51:30;18.40;99.90
57444;DHT22;43289;52.962;6.196;2022-07-23T07:53:56;18.50;99.90
57444;DHT22;43289;52.962;6.196;2022-07-23T08:17:06;18.60;99.90
57444;DHT22;43289;52.962;6.196;2022-07-23T08:19:31;19.40;99.90
57444;DHT22;43289;52.962;6.196;2022-07-23T08:21:57;19.40;99.90
57444;DHT22;43289;52.962;6.196;2022-07-23T08:24:22;19.40;99.90
57444;DHT22;43289;52.962;6.196;2022-07-23T08:29:14;19.50;99.90
57444;DHT22;43289;52.962;6.196;2022-07-23T08:31:40;19.50;99.90
57444;DHT22;43289;52.962;6.196;2022-07-23T08:34:05;19.40;99.90
57444;DHT22;43289;52.962;6.196;2022-07-23T08:36:31;19.40;99.90
57444;DHT22;43289;52.962;6.196;2022-07-23T08:42:47;19.50;99.90
57444;DHT22;43289;52.962;6.196;2022-07-23T08:45:16;19.50;99.90
57444;DHT22;43289;52.962;6.196;2022-07-23T08:47:43;19.50;99.90
57444;DHT22;43289;52.962;6.196;2022-07-23T08:50:10;19.50;99.90
57444;DHT22;43289;52.962;6.196;2022-07-23T08:52:36;19.60;99.90
57444;DHT22;43289;52.962;6.196;2022-07-23T08:55:03;19.60;99.90
57444;DHT22;43289;52.962;6.196;2022-07-23T08:57:29;19.70;99.90
57444;DHT22;43289;52.962;6.196;2022-07-23T08:59:54;19.70;99.90
57444;DHT22;43289;52.962;6.196;2022-07-23T09:02:20;19.70;99.90
57444;DHT22;43289;52.962;6.196;2022-07-23T09:04:56;19.80;99.90
57444;DHT22;43289;52.962;6.196;2022-07-23T09:07:21;19.70;99.70
57444;DHT22;43289;52.962;6.196;2022-07-23T09:09:47;19.70;99.90
57444;DHT22;43289;52.962;6.196;2022-07-23T09:12:25;19.70;99.90
57444;DHT22;43289;52.962;6.196;2022-07-23T09:14:51;19.70;99.90
57444;DHT22;43289;52.962;6.196;2022-07-23T09:17:17;19.70;99.90
57444;DHT22;43289;52.962;6.196;2022-07-23T09:19:45;19.70;99.90
57444;DHT22;43289;52.962;6.196;2022-07-23T09:22:37;19.80;99.90
57444;DHT22;43289;52.962;6.196;2022-07-23T09:27:52;19.70;99.90
57444;DHT22;43289;52.962;6.196;2022-07-23T09:30:19;19.80;99.90
57444;DHT22;43289;52.962;6.196;2022-07-23T09:33:03;19.80;99.90
57444;DHT22;43289;52.962;6.196;2022-07-23T09:35:53;19.80;99.80
57444;DHT22;43289;52.962;6.196;2022-07-23T09:38:22;19.90;99.90
57444;DHT22;43289;52.962;6.196;2022-07-23T10:48:25;20.00;99.90
57444;DHT22;43289;52.962;6.196;2022-07-23T10:51:15;21.20;98.80
57444;DHT22;43289;52.962;6.196;2022-07-23T10:53:55;21.40;98.50
57444;DHT22;43289;52.962;6.196;2022-07-23T11:02:50;21.80;97.80
57444;DHT22;43289;52.962;6.196;2022-07-23T11:05:17;22.10;98.60
57444;DHT22;43289;52.962;6.196;2022-07-23T11:10:38;21.90;96.50
57444;DHT22;43289;52.962;6.196;2022-07-23T11:16:21;21.70;95.70
57444;DHT22;43289;52.962;6.196;2022-07-23T11:22:34;21.40;97.00
57444;DHT22;43289;52.962;6.196;2022-07-23T11:25:00;21.50;98.70
57444;DHT22;43289;52.962;6.196;2022-07-23T11:27:40;21.50;98.60
57444;DHT22;43289;52.962;6.196;2022-07-23T11:30:12;21.60;98.70
57444;DHT22;43289;52.962;6.196;2022-07-23T11:35:35;22.00;96.80
57444;DHT22;43289;52.962;6.196;2022-07-23T11:38:22;22.00;97.90
57444;DHT22;43289;52.962;6.196;2022-07-23T11:40:50;22.20;96.20
57444;DHT22;43289;52.962;6.196;2022-07-23T11:43:16;22.40;97.60
57444;DHT22;43289;52.962;6.196;2022-07-23T11:45:45;22.30;97.70
57444;DHT22;43289;52.962;6.196;2022-07-23T11:48:23;22.50;97.60
57444;DHT22;43289;52.962;6.196;2022-07-23T11:50:49;22.50;95.10
57444;DHT22;43289;52.962;6.196;2022-07-23T11:53:30;22.50;97.00
57444;DHT22;43289;52.962;6.196;2022-07-23T11:59:38;22.80;96.00
57444;DHT22;43289;52.962;6.196;2022-07-23T12:02:05;22.80;95.90
57444;DHT22;43289;52.962;6.196;2022-07-23T12:10:42;22.60;89.30
57444;DHT22;43289;52.962;6.196;2022-07-23T12:13:19;22.80;95.90
57444;DHT22;43289;52.962;6.196;2022-07-23T12:15:48;23.00;95.00
57444;DHT22;43289;52.962;6.196;2022-07-23T12:18:20;23.00;94.20
57444;DHT22;43289;52.962;6.196;2022-07-23T12:20:49;23.10;93.20
57444;DHT22;43289;52.962;6.196;2022-07-23T12:23:19;23.20;94.30
57444;DHT22;43289;52.962;6.196;2022-07-23T12:25:47;23.00;92.30
57444;DHT22;43289;52.962;6.196;2022-07-23T12:28:21;22.80;93.90
57444;DHT22;43289;52.962;6.196;2022-07-23T12:30:53;22.80;94.80
57444;DHT22;43289;52.962;6.196;2022-07-23T12:33:34;22.80;94.10
57444;DHT22;43289;52.962;6.196;2022-07-23T12:39:32;22.60;92.20
57444;DHT22;43289;52.962;6.196;2022-07-23T12:42:17;22.60;95.10
57444;DHT22;43289;52.962;6.196;2022-07-23T12:45:03;22.80;95.20
57444;DHT22;43289;52.962;6.196;2022-07-23T12:47:29;23.10;92.20
57444;DHT22;43289;52.962;6.196;2022-07-23T12:49:54;23.10;93.80
57444;DHT22;43289;52.962;6.196;2022-07-23T12:52:20;23.40;93.80
57444;DHT22;43289;52.962;6.196;2022-07-23T12:54:45;23.60;92.40
57444;DHT22;43289;52.962;6.196;2022-07-23T12:59:37;24.00;91.30
57444;DHT22;43289;52.962;6.196;2022-07-23T13:02:03;24.20;91.00
57444;DHT22;43289;52.962;6.196;2022-07-23T13:06:58;24.30;90.60
57444;DHT22;43289;52.962;6.196;2022-07-23T13:11:54;24.00;90.00
57444;DHT22;43289;52.962;6.196;2022-07-23T13:14:22;24.10;90.20
57444;DHT22;43289;52.962;6.196;2022-07-23T13:59:44;24.30;87.30
57444;DHT22;43289;52.962;6.196;2022-07-23T14:02:09;23.60;90.90
57444;DHT22;43289;52.962;6.196;2022-07-23T14:16:47;23.40;90.10
57444;DHT22;43289;52.962;6.196;2022-07-23T14:19:13;23.40;91.90
57444;DHT22;43289;52.962;6.196;2022-07-23T14:21:38;23.60;91.00
57444;DHT22;43289;52.962;6.196;2022-07-23T14:24:04;23.40;90.90
57444;DHT22;43289;52.962;6.196;2022-07-23T14:26:34;23.50;90.80
57444;DHT22;43289;52.962;6.196;2022-07-23T14:28:59;23.80;90.70
57444;DHT22;43289;52.962;6.196;2022-07-23T14:31:26;24.00;91.40
57444;DHT22;43289;52.962;6.196;2022-07-23T14:39:59;24.30;85.00
57444;DHT22;43289;52.962;6.196;2022-07-23T14:44:50;24.50;88.60
57444;DHT22;43289;52.962;6.196;2022-07-23T14:47:16;24.90;88.40
57444;DHT22;43289;52.962;6.196;2022-07-23T14:49:42;24.90;83.60
57444;DHT22;43289;52.962;6.196;2022-07-23T14:52:07;25.00;85.00
57444;DHT22;43289;52.962;6.196;2022-07-23T14:54:33;25.00;80.80
57444;DHT22;43289;52.962;6.196;2022-07-23T14:57:00;25.00;80.20
57444;DHT22;43289;52.962;6.196;2022-07-23T14:59:26;25.00;78.10
57444;DHT22;43289;52.962;6.196;2022-07-23T15:01:52;24.90;78.10
57444;DHT22;43289;52.962;6.196;2022-07-23T15:04:18;24.90;73.40
57444;DHT22;43289;52.962;6.196;2022-07-23T15:06:44;24.80;75.30
57444;DHT22;43289;52.962;6.196;2022-07-23T15:09:10;24.80;76.40
57444;DHT22;43289;52.962;6.196;2022-07-23T15:11:38;24.80;76.80
57444;DHT22;43289;52.962;6.196;2022-07-23T15:14:04;25.00;80.70
57444;DHT22;43289;52.962;6.196;2022-07-23T15:16:30;24.90;78.90
57444;DHT22;43289;52.962;6.196;2022-07-23T15:19:25;24.80;77.00
57444;DHT22;43289;52.962;6.196;2022-07-23T15:21:51;25.00;73.90
57444;DHT22;43289;52.962;6.196;2022-07-23T15:24:16;24.80;76.50
57444;DHT22;43289;52.962;6.196;2022-07-23T15:26:52;24.80;77.40
57444;DHT22;43289;52.962;6.196;2022-07-23T15:29:18;24.90;71.20
57444;DHT22;43289;52.962;6.196;2022-07-23T15:31:43;24.80;78.80
57444;DHT22;43289;52.962;6.196;2022-07-23T15:34:09;24.80;75.00
57444;DHT22;43289;52.962;6.196;2022-07-23T15:36:35;24.80;75.80
57444;DHT22;43289;52.962;6.196;2022-07-23T15:39:01;24.90;77.50
57444;DHT22;43289;52.962;6.196;2022-07-23T15:41:27;24.90;77.90
57444;DHT22;43289;52.962;6.196;2022-07-23T15:43:53;24.90;75.90
57444;DHT22;43289;52.962;6.196;2022-07-23T15:46:20;24.90;75.00
57444;DHT22;43289;52.962;6.196;2022-07-23T15:48:47;24.80;76.90
57444;DHT22;43289;52.962;6.196;2022-07-23T15:54:37;24.90;67.00
57444;DHT22;43289;52.962;6.196;2022-07-23T15:57:03;25.00;74.10
57444;DHT22;43289;52.962;6.196;2022-07-23T15:59:29;24.90;74.90
57444;DHT22;43289;52.962;6.196;2022-07-23T16:01:56;24.90;74.00
57444;DHT22;43289;52.962;6.196;2022-07-23T16:04:21;24.90;76.70
57444;DHT22;43289;52.962;6.196;2022-07-23T16:06:47;25.00;73.90
57444;DHT22;43289;52.962;6.196;2022-07-23T16:09:12;25.00;71.80
57444;DHT22;43289;52.962;6.196;2022-07-23T16:11:53;25.00;72.80
57444;DHT22;43289;52.962;6.196;2022-07-23T16:14:20;25.00;71.70
57444;DHT22;43289;52.962;6.196;2022-07-23T16:16:46;25.20;73.90
57444;DHT22;43289;52.962;6.196;2022-07-23T16:19:18;25.30;70.10
57444;DHT22;43289;52.962;6.196;2022-07-23T16:21:44;25.40;69.40
57444;DHT22;43289;52.962;6.196;2022-07-23T16:24:10;25.50;68.20
57444;DHT22;43289;52.962;6.196;2022-07-23T16:26:49;25.50;67.10
57444;DHT22;43289;52.962;6.196;2022-07-23T16:29:15;25.40;66.10
57444;DHT22;43289;52.962;6.196;2022-07-23T16:31:41;25.20;68.20
57444;DHT22;43289;52.962;6.196;2022-07-23T16:37:47;24.50;65.90
57444;DHT22;43289;52.962;6.196;2022-07-23T16:40:13;24.10;75.30
57444;DHT22;43289;52.962;6.196;2022-07-23T16:45:05;23.70;76.80
57444;DHT22;43289;52.962;6.196;2022-07-23T16:47:31;23.40;80.20
57444;DHT22;43289;52.962;6.196;2022-07-23T16:49:57;23.20;81.80
57444;DHT22;43289;52.962;6.196;2022-07-23T16:52:23;23.10;81.50
57444;DHT22;43289;52.962;6.196;2022-07-23T16:54:48;23.00;80.70
57444;DHT22;43289;52.962;6.196;2022-07-23T16:57:14;23.00;83.70
57444;DHT22;43289;52.962;6.196;2022-07-23T17:02:06;22.90;84.40
57444;DHT22;43289;52.962;6.196;2022-07-23T19:06:56;22.80;84.60
57444;DHT22;43289;52.962;6.196;2022-07-23T20:25:18;18.60;99.90
57444;DHT22;43289;52.962;6.196;2022-07-23T20:27:43;18.40;99.90
57444;DHT22;43289;52.962;6.196;2022-07-23T20:49:41;18.30;99.90
57444;DHT22;43289;52.962;6.196;2022-07-23T20:52:09;18.10;99.90
57444;DHT22;43289;52.962;6.196;2022-07-23T20:57:00;18.00;99.90
57444;DHT22;43289;52.962;6.196;2022-07-23T20:59:26;17.80;99.90
57444;DHT22;43289;52.962;6.196;2022-07-23T21:01:52;17.80;99.90
57444;DHT22;43289;52.962;6.196;2022-07-23T21:04:23;17.80;99.90
57444;DHT22;43289;52.962;6.196;2022-07-23T21:06:49;17.70;99.90
57444;DHT22;43289;52.962;6.196;2022-07-23T21:09:15;17.70;99.90
57444;DHT22;43289;52.962;6.196;2022-07-23T21:11:40;17.60;99.90
57444;DHT22;43289;52.962;6.196;2022-07-23T21:14:06;17.60;99.90
57444;DHT22;43289;52.962;6.196;2022-07-23T21:16:32;17.60;99.90
57444;DHT22;43289;52.962;6.196;2022-07-23T21:22:20;17.60;99.90
57444;DHT22;43289;52.962;6.196;2022-07-23T21:27:12;17.50;99.90
57444;DHT22;43289;52.962;6.196;2022-07-23T21:29:38;17.50;99.90
57444;DHT22;43289;52.962;6.196;2022-07-23T21:32:04;17.50;99.90
57444;DHT22;43289;52.962;6.196;2022-07-23T21:34:30;17.40;99.90
57444;DHT22;43289;52.962;6.196;2022-07-23T21:36:58;17.50;99.90
57444;DHT22;43289;52.962;6.196;2022-07-23T21:39:24;17.40;99.90
57444;DHT22;43289;52.962;6.196;2022-07-23T21:41:49;17.40;99.90
57444;DHT22;43289;52.962;6.196;2022-07-23T21:44:45;17.40;99.90
57444;DHT22;43289;52.962;6.196;2022-07-23T21:47:11;17.40;99.90
57444;DHT22;43289;52.962;6.196;2022-07-23T21:49:36;17.40;99.90
57444;DHT22;43289;52.962;6.196;2022-07-23T21:52:02;17.30;99.90
57444;DHT22;43289;52.962;6.196;2022-07-23T22:01:46;17.30;99.90
57444;DHT22;43289;52.962;6.196;2022-07-23T22:04:40;17.20;99.90
57444;DHT22;43289;52.962;6.196;2022-07-23T22:07:06;17.20;99.90
57444;DHT22;43289;52.962;6.196;2022-07-23T22:09:31;17.20;99.90
57444;DHT22;43289;52.962;6.196;2022-07-23T22:11:57;17.20;99.90
57444;DHT22;43289;52.962;6.196;2022-07-23T22:14:22;17.10;99.90
57444;DHT22;43289;52.962;6.196;2022-07-23T22:16:58;17.20;99.90
57444;DHT22;43289;52.962;6.196;2022-07-23T22:21:49;17.10;99.90
57444;DHT22;43289;52.962;6.196;2022-07-23T22:39:08;17.10;99.90
57444;DHT22;43289;52.962;6.196;2022-07-23T22:44:00;16.90;99.90
57444;DHT22;43289;52.962;6.196;2022-07-23T22:46:26;16.80;99.90
57444;DHT22;43289;52.962;6.196;2022-07-23T22:48:52;16.90;99.90
57444;DHT22;43289;52.962;6.196;2022-07-23T22:51:17;16.80;99.90
57444;DHT22;43289;52.962;6.196;2022-07-23T22:53:43;16.80;99.90
57444;DHT22;43289;52.962;6.196;2022-07-23T22:56:08;16.80;99.90
57444;DHT22;43289;52.962;6.196;2022-07-23T22:58:34;16.70;99.90
57444;DHT22;43289;52.962;6.196;2022-07-23T23:01:00;16.70;99.90
57444;DHT22;43289;52.962;6.196;2022-07-23T23:03:25;16.70;99.90
57444;DHT22;43289;52.962;6.196;2022-07-23T23:05:51;16.60;99.90
57444;DHT22;43289;52.962;6.196;2022-07-23T23:15:36;16.60;99.90
57444;DHT22;43289;52.962;6.196;2022-07-23T23:18:02;16.50;99.90
57444;DHT22;43289;52.962;6.196;2022-07-23T23:20:27;16.50;99.90
57444;DHT22;43289;52.962;6.196;2022-07-23T23:27:45;16.40;99.90
57444;DHT22;43289;52.962;6.196;2022-07-23T23:30:11;16.40;99.90
57444;DHT22;43289;52.962;6.196;2022-07-23T23:32:40;16.30;99.90
57444;DHT22;43289;52.962;6.196;2022-07-23T23:35:06;16.30;99.90
57444;DHT22;43289;52.962;6.196;2022-07-23T23:37:31;16.30;99.90
57444;DHT22;43289;52.962;6.196;2022-07-23T23:39:57;16.20;99.90
57444;DHT22;43289;52.962;6.196;2022-07-23T23:42:23;16.20;99.90
57444;DHT22;43289;52.962;6.196;2022-07-23T23:44:48;16.20;99.90
57444;DHT22;43289;52.962;6.196;2022-07-23T23:52:06;16.10;99.90
57444;DHT22;43289;52.962;6.196;2022-07-23T23:56:58;16.10;99.90
57444;DHT22;43289;52.962;6.196;2022-07-23T23:59:24;16.10;99.90
